Industry, Maine
Current Conditions -  °F | °C
As of 5:55 PM on Monday 24 Nov 2014 (Local Time) from KWVL Reporting Station
Overcast Overcast  
Wind Chill: 15°   Ceiling: 400
Heat Index: 15°   Visibility: 9mi
Dew Point: 13°   Wind: 9mph
Humidity: 88%   Direction: 180°S
Pressure: 29.49"   Gusts: 18mph
Location:  44.6583°N, 70.1012°W
Report Text: KWVL 242255Z 18008G16KT 150V220 9SM OVC004 15/13 A2949 RMK AO1
Loading
Personal Weather Stations






























Interactive Weather Map New forecast layout! Learn more

10-Day Weather Forecast

Advertisements
Track Severe Weather on mobile